Time;durP1;ratioP1;P1;durP2;ratioP2;P2;SDS_P1;SDS_P2;PMS_P1;PMS_P2;Temp;Humidity;BMP_temperature;BMP_pressure;BME280_temperature;BME280_humidity;BME280_pressure;Samples;Min_cycle;Max_cycle;Signal;HPM_P1;HPM_P2
2022/11/11 00:00:51;;;;;;;;;;;5.40;99.90;;;;;;2042134;69;20145;-71
2022/11/11 00:03:18;;;;;;;;;;;5.40;99.90;;;;;;2024911;69;20110;-71
2022/11/11 00:05:44;;;;;;;;;;;5.40;99.90;;;;;;2021066;69;20107;-71
2022/11/11 00:08:11;;;;;;;;;;;5.30;99.90;;;;;;2020312;69;20331;-70
2022/11/11 00:10:38;;;;;;;;;;;5.30;99.90;;;;;;2024561;71;20111;-72
2022/11/11 00:13:05;;;;;;;;;;;5.30;99.90;;;;;;2027512;69;20350;-71
2022/11/11 00:15:31;;;;;;;;;;;5.30;99.90;;;;;;2017675;70;20358;-71
2022/11/11 00:26:13;;;;;;;;;;;5.10;99.90;;;;;;2021207;69;20138;-71
2022/11/11 00:28:40;;;;;;;;;;;5.10;99.90;;;;;;2035380;70;20099;-71
2022/11/11 00:31:08;;;;;;;;;;;5.00;99.90;;;;;;2026606;70;20364;-72
2022/11/11 00:33:34;;;;;;;;;;;5.00;99.90;;;;;;2038199;70;20184;-69
2022/11/11 00:36:01;;;;;;;;;;;5.10;99.90;;;;;;2033909;69;20130;-70
2022/11/11 00:38:47;;;;;;;;;;;5.00;99.90;;;;;;2032976;70;20114;-71
2022/11/11 00:41:15;;;;;;;;;;;5.10;99.90;;;;;;2019781;69;20100;-69
2022/11/11 00:43:42;;;;;;;;;;;5.00;99.90;;;;;;2018151;69;20119;-70
2022/11/11 00:51:38;;;;;;;;;;;5.00;99.90;;;;;;2038607;69;20171;-69
2022/11/11 00:54:04;;;;;;;;;;;5.00;99.90;;;;;;2026674;69;20107;-71
2022/11/11 00:56:31;;;;;;;;;;;4.90;99.90;;;;;;2033977;69;20148;-71
2022/11/11 00:59:17;;;;;;;;;;;4.90;99.90;;;;;;2033544;70;20115;-70
2022/11/11 01:01:44;;;;;;;;;;;5.00;99.90;;;;;;1956122;73;20100;-72
2022/11/11 01:04:11;;;;;;;;;;;5.00;99.90;;;;;;1953634;73;20120;-71
2022/11/11 01:06:37;;;;;;;;;;;4.90;99.90;;;;;;1916576;74;20102;-71
2022/11/11 01:09:05;;;;;;;;;;;4.90;99.90;;;;;;1936389;74;20194;-71
2022/11/11 01:11:31;;;;;;;;;;;4.90;99.90;;;;;;1932573;73;20144;-69
2022/11/11 01:13:58;;;;;;;;;;;4.90;99.90;;;;;;1930997;72;20136;-70
2022/11/11 01:16:25;;;;;;;;;;;4.80;99.90;;;;;;1941403;73;20136;-68
2022/11/11 01:18:52;;;;;;;;;;;4.80;99.90;;;;;;1927367;73;20144;-67
2022/11/11 01:21:20;;;;;;;;;;;4.80;99.90;;;;;;1951381;72;20112;-71
2022/11/11 01:23:47;;;;;;;;;;;4.80;99.90;;;;;;1955378;72;20115;-71
2022/11/11 01:26:15;;;;;;;;;;;4.70;99.90;;;;;;1948716;72;20120;-68
2022/11/11 01:28:42;;;;;;;;;;;4.70;99.90;;;;;;1951088;73;20166;-68
2022/11/11 01:31:09;;;;;;;;;;;4.60;99.90;;;;;;1953635;72;20150;-72
2022/11/11 01:33:36;;;;;;;;;;;4.50;99.90;;;;;;1955877;73;20147;-73
2022/11/11 01:36:03;;;;;;;;;;;4.60;99.90;;;;;;1953427;72;20185;-71
2022/11/11 01:38:30;;;;;;;;;;;4.50;99.90;;;;;;1959392;72;20162;-71
2022/11/11 01:40:57;;;;;;;;;;;4.40;99.90;;;;;;1953394;72;20119;-72
2022/11/11 01:43:24;;;;;;;;;;;4.50;99.90;;;;;;1943775;73;20108;-72
2022/11/11 01:45:56;;;;;;;;;;;4.40;99.90;;;;;;1943179;73;20190;-72
2022/11/11 01:51:19;;;;;;;;;;;4.50;99.90;;;;;;1950767;72;20395;-71
2022/11/11 01:53:47;;;;;;;;;;;4.60;99.90;;;;;;1951739;72;20149;-70
2022/11/11 01:56:13;;;;;;;;;;;4.60;99.90;;;;;;1948907;73;20153;-69
2022/11/11 01:58:40;;;;;;;;;;;4.60;99.90;;;;;;1955953;73;20148;-70
2022/11/11 02:01:07;;;;;;;;;;;4.60;99.90;;;;;;1955992;73;20105;-69
2022/11/11 02:03:35;;;;;;;;;;;4.50;99.90;;;;;;1953783;72;20108;-69
2022/11/11 02:06:01;;;;;;;;;;;4.50;99.90;;;;;;1954178;73;20149;-69
2022/11/11 02:08:32;;;;;;;;;;;4.40;99.90;;;;;;1952400;73;20113;-70
2022/11/11 02:11:00;;;;;;;;;;;4.40;99.90;;;;;;1965421;73;20116;-71
2022/11/11 02:16:12;;;;;;;;;;;4.40;99.90;;;;;;1952964;72;20327;-70
2022/11/11 02:18:39;;;;;;;;;;;4.40;99.90;;;;;;1955818;73;20115;-69
2022/11/11 02:21:06;;;;;;;;;;;4.40;99.90;;;;;;1955938;72;20359;-69
2022/11/11 02:23:34;;;;;;;;;;;4.30;99.90;;;;;;1955888;73;20115;-70
2022/11/11 02:26:01;;;;;;;;;;;4.30;99.90;;;;;;1955691;72;20386;-70
2022/11/11 02:28:27;;;;;;;;;;;4.30;99.90;;;;;;1947546;72;20179;-70
2022/11/11 02:30:54;;;;;;;;;;;4.20;99.90;;;;;;1956329;72;20115;-70
2022/11/11 02:33:21;;;;;;;;;;;4.00;99.90;;;;;;1955256;73;20205;-69
2022/11/11 02:35:55;;;;;;;;;;;4.00;99.90;;;;;;1955840;72;20150;-72
2022/11/11 02:38:22;;;;;;;;;;;3.90;99.90;;;;;;1952595;72;20146;-71
2022/11/11 02:43:34;;;;;;;;;;;3.90;99.90;;;;;;1950546;73;20123;-69
2022/11/11 02:46:01;;;;;;;;;;;3.90;99.90;;;;;;1955807;73;20416;-71
2022/11/11 02:48:28;;;;;;;;;;;3.90;99.90;;;;;;1944390;73;20158;-70
2022/11/11 02:50:55;;;;;;;;;;;4.00;99.90;;;;;;1946590;72;20120;-71
2022/11/11 02:53:21;;;;;;;;;;;3.90;99.90;;;;;;1954497;73;20272;-72
2022/11/11 02:55:48;;;;;;;;;;;4.00;99.90;;;;;;1955357;73;20324;-72
2022/11/11 02:58:15;;;;;;;;;;;4.10;99.90;;;;;;1955868;73;20119;-71
2022/11/11 03:00:42;;;;;;;;;;;4.20;99.90;;;;;;1955277;72;20153;-71
2022/11/11 03:03:09;;;;;;;;;;;4.00;99.90;;;;;;1950336;73;20162;-71
2022/11/11 03:05:35;;;;;;;;;;;3.90;99.90;;;;;;1944040;73;20116;-70
2022/11/11 03:08:02;;;;;;;;;;;3.80;99.90;;;;;;1951436;72;20149;-71
2022/11/11 03:10:29;;;;;;;;;;;3.80;99.90;;;;;;1955812;72;20154;-71
2022/11/11 03:12:56;;;;;;;;;;;3.70;99.90;;;;;;1949251;72;20116;-71
2022/11/11 03:15:22;;;;;;;;;;;3.70;99.90;;;;;;1949110;73;20320;-71
2022/11/11 03:17:50;;;;;;;;;;;3.70;99.90;;;;;;1946124;73;20127;-71
2022/11/11 03:23:02;;;;;;;;;;;3.70;99.90;;;;;;1953310;72;20120;-69
2022/11/11 03:25:38;;;;;;;;;;;3.70;99.90;;;;;;1955840;72;20170;-72
2022/11/11 03:30:58;;;;;;;;;;;3.80;99.90;;;;;;1940936;73;20194;-71
2022/11/11 03:33:25;;;;;;;;;;;3.90;99.90;;;;;;1938293;72;20148;-70
2022/11/11 03:35:52;;;;;;;;;;;3.90;99.90;;;;;;1934518;73;20355;-70
2022/11/11 03:38:25;;;;;;;;;;;3.90;99.90;;;;;;1940280;72;20116;-71
2022/11/11 03:40:51;;;;;;;;;;;3.80;99.90;;;;;;1944737;73;20165;-70
2022/11/11 03:43:18;;;;;;;;;;;3.90;99.90;;;;;;1935259;73;20182;-71
2022/11/11 03:45:44;;;;;;;;;;;4.00;99.90;;;;;;1941921;73;20147;-71
2022/11/11 03:48:11;;;;;;;;;;;4.00;99.90;;;;;;1926411;73;20119;-73
2022/11/11 03:50:38;;;;;;;;;;;3.90;99.90;;;;;;1940785;72;20112;-71
2022/11/11 03:53:05;;;;;;;;;;;3.90;99.90;;;;;;1936130;73;20127;-71
2022/11/11 03:55:31;;;;;;;;;;;3.90;99.90;;;;;;1940252;72;20116;-71
2022/11/11 03:57:58;;;;;;;;;;;3.90;99.90;;;;;;1935316;73;20166;-70
2022/11/11 04:00:25;;;;;;;;;;;4.00;99.90;;;;;;1941003;73;20173;-70
2022/11/11 04:11:14;;;;;;;;;;;4.20;99.90;;;;;;1936399;74;20112;-71
2022/11/11 04:16:10;;;;;;;;;;;4.10;99.90;;;;;;1895996;74;20170;-71
2022/11/11 04:26:51;;;;;;;;;;;4.10;99.90;;;;;;1941946;73;20190;-69
2022/11/11 04:29:29;;;;;;;;;;;4.20;99.90;;;;;;1935323;73;20371;-71
2022/11/11 04:34:49;;;;;;;;;;;4.10;99.90;;;;;;1935841;72;20151;-69
2022/11/11 04:37:15;;;;;;;;;;;4.20;99.90;;;;;;1925997;73;20176;-69
2022/11/11 04:42:27;;;;;;;;;;;4.00;99.90;;;;;;1936555;72;20129;-70
2022/11/11 04:47:38;;;;;;;;;;;4.00;99.90;;;;;;1938165;72;20116;-70
2022/11/11 04:50:05;;;;;;;;;;;3.80;99.90;;;;;;1887907;73;20108;-70
2022/11/11 04:52:32;;;;;;;;;;;3.80;99.90;;;;;;1940491;73;20162;-70
2022/11/11 04:57:45;;;;;;;;;;;3.70;99.90;;;;;;1925242;73;20416;-71
2022/11/11 05:00:13;;;;;;;;;;;3.80;99.90;;;;;;1923931;73;20324;-69
2022/11/11 05:05:25;;;;;;;;;;;3.60;99.90;;;;;;1926323;72;20189;-69
2022/11/11 05:10:36;;;;;;;;;;;3.70;99.90;;;;;;1934648;72;20332;-70
2022/11/11 05:21:22;;;;;;;;;;;3.50;99.90;;;;;;1943234;73;20108;-70
2022/11/11 05:26:34;;;;;;;;;;;3.60;99.90;;;;;;1950618;74;20203;-70
2022/11/11 05:29:00;;;;;;;;;;;3.70;99.90;;;;;;1929143;72;20123;-70
2022/11/11 05:31:27;;;;;;;;;;;3.70;99.90;;;;;;1944525;73;20151;-70
2022/11/11 05:33:54;;;;;;;;;;;3.80;99.90;;;;;;1933277;73;20159;-69
2022/11/11 05:36:21;;;;;;;;;;;3.70;99.90;;;;;;1948905;73;20116;-69
2022/11/11 05:38:47;;;;;;;;;;;3.50;99.90;;;;;;1933197;73;20123;-70
2022/11/11 05:41:14;;;;;;;;;;;3.60;99.90;;;;;;1945069;73;20124;-69
2022/11/11 05:43:41;;;;;;;;;;;3.60;99.90;;;;;;1948015;73;20115;-70
2022/11/11 05:46:07;;;;;;;;;;;3.80;99.90;;;;;;1922159;73;20120;-70
2022/11/11 05:48:34;;;;;;;;;;;3.80;99.90;;;;;;1940932;74;20151;-70
2022/11/11 05:51:01;;;;;;;;;;;3.70;99.90;;;;;;1935806;73;20124;-69
2022/11/11 05:53:28;;;;;;;;;;;3.80;99.90;;;;;;1918227;73;20108;-69
2022/11/11 05:55:55;;;;;;;;;;;3.80;99.90;;;;;;1925458;72;20305;-72
2022/11/11 05:58:21;;;;;;;;;;;3.80;99.90;;;;;;1922442;72;20178;-70
2022/11/11 06:00:48;;;;;;;;;;;3.90;99.90;;;;;;1930779;73;20304;-70
2022/11/11 06:03:15;;;;;;;;;;;4.00;99.90;;;;;;1934968;73;20112;-70
2022/11/11 06:05:41;;;;;;;;;;;3.90;99.90;;;;;;1940755;73;20365;-70
2022/11/11 06:08:08;;;;;;;;;;;3.90;99.90;;;;;;1927673;72;20210;-70
2022/11/11 06:10:35;;;;;;;;;;;3.80;99.90;;;;;;1931599;73;20343;-70
2022/11/11 06:13:03;;;;;;;;;;;3.80;99.90;;;;;;1930065;73;20284;-71
2022/11/11 06:15:32;;;;;;;;;;;3.80;99.90;;;;;;1912506;72;20145;-71
2022/11/11 06:17:59;;;;;;;;;;;3.70;99.90;;;;;;1926171;72;20123;-70
2022/11/11 06:20:26;;;;;;;;;;;3.70;99.90;;;;;;1923126;73;20207;-71
2022/11/11 06:22:56;;;;;;;;;;;3.80;99.90;;;;;;1937691;73;20204;-70
2022/11/11 06:28:12;;;;;;;;;;;3.80;99.90;;;;;;1948245;74;20120;-71
2022/11/11 06:30:39;;;;;;;;;;;3.70;99.90;;;;;;1945209;72;20390;-72
2022/11/11 06:33:09;;;;;;;;;;;3.70;99.90;;;;;;1913844;72;20109;-70
2022/11/11 06:35:36;;;;;;;;;;;3.80;99.90;;;;;;1936153;72;20209;-72
2022/11/11 06:38:03;;;;;;;;;;;3.80;99.90;;;;;;1930874;72;20120;-71
2022/11/11 06:40:32;;;;;;;;;;;3.80;99.90;;;;;;1931083;72;20343;-69
2022/11/11 06:42:59;;;;;;;;;;;3.70;99.90;;;;;;1921486;73;20124;-69
2022/11/11 06:45:26;;;;;;;;;;;3.60;99.90;;;;;;1929924;73;20119;-69
2022/11/11 06:47:52;;;;;;;;;;;3.70;99.90;;;;;;1943367;73;20227;-69
2022/11/11 06:50:19;;;;;;;;;;;3.80;99.90;;;;;;1943027;73;20343;-69
2022/11/11 06:52:46;;;;;;;;;;;3.70;99.90;;;;;;1929923;72;20119;-69
2022/11/11 06:55:13;;;;;;;;;;;3.70;99.90;;;;;;1934690;73;20112;-70
2022/11/11 06:57:40;;;;;;;;;;;3.70;99.90;;;;;;1943890;73;20109;-70
2022/11/11 07:00:09;;;;;;;;;;;3.70;99.90;;;;;;1938293;73;20154;-70
2022/11/11 07:02:36;;;;;;;;;;;3.80;99.90;;;;;;1940190;73;20116;-71
2022/11/11 07:05:03;;;;;;;;;;;3.80;99.90;;;;;;1924485;72;20119;-70
2022/11/11 07:07:30;;;;;;;;;;;4.00;99.90;;;;;;1940298;72;20324;-72
2022/11/11 07:09:56;;;;;;;;;;;4.00;99.90;;;;;;1946434;73;20185;-72
2022/11/11 07:12:23;;;;;;;;;;;3.80;99.90;;;;;;1941173;72;20249;-73
2022/11/11 07:14:50;;;;;;;;;;;3.90;99.90;;;;;;1938063;72;20119;-74
2022/11/11 07:17:17;;;;;;;;;;;3.80;99.90;;;;;;1942150;73;20104;-73
2022/11/11 07:19:43;;;;;;;;;;;3.80;99.90;;;;;;1922037;73;20120;-73
2022/11/11 07:22:10;;;;;;;;;;;3.80;99.90;;;;;;1921995;72;20352;-73
2022/11/11 07:24:37;;;;;;;;;;;4.00;99.90;;;;;;1950624;73;20209;-71
2022/11/11 07:27:03;;;;;;;;;;;4.00;99.90;;;;;;1939869;73;20249;-70
2022/11/11 07:29:30;;;;;;;;;;;3.90;99.90;;;;;;1949830;74;20355;-70
2022/11/11 07:31:57;;;;;;;;;;;3.90;99.90;;;;;;1945833;73;20115;-69
2022/11/11 07:34:23;;;;;;;;;;;3.90;99.90;;;;;;1935387;73;20193;-70
2022/11/11 07:36:50;;;;;;;;;;;4.30;99.90;;;;;;1928867;73;20237;-71
2022/11/11 07:39:17;;;;;;;;;;;4.30;99.90;;;;;;1935384;73;20127;-70
2022/11/11 07:41:44;;;;;;;;;;;4.40;99.90;;;;;;1943578;73;20162;-68
2022/11/11 07:44:10;;;;;;;;;;;4.40;99.90;;;;;;1941470;73;20123;-69
2022/11/11 07:46:37;;;;;;;;;;;4.20;99.90;;;;;;1923731;72;20124;-67
2022/11/11 07:49:04;;;;;;;;;;;4.30;99.90;;;;;;1930532;72;20195;-69
2022/11/11 07:51:30;;;;;;;;;;;4.20;99.90;;;;;;1924113;72;20112;-68
2022/11/11 07:53:57;;;;;;;;;;;4.30;99.90;;;;;;1924674;73;20112;-73
2022/11/11 07:56:24;;;;;;;;;;;4.30;99.90;;;;;;1933816;72;20189;-68
2022/11/11 07:58:50;;;;;;;;;;;4.40;99.90;;;;;;1937047;73;20212;-71
2022/11/11 08:01:17;;;;;;;;;;;4.60;99.90;;;;;;1922477;72;20115;-69
2022/11/11 08:03:50;;;;;;;;;;;4.50;99.90;;;;;;1928498;73;20196;-68
2022/11/11 08:06:18;;;;;;;;;;;4.50;99.90;;;;;;1942577;72;20128;-67
2022/11/11 08:08:45;;;;;;;;;;;4.50;99.90;;;;;;1932483;73;20182;-68
2022/11/11 08:11:12;;;;;;;;;;;4.40;99.90;;;;;;1937709;72;20150;-69
2022/11/11 08:13:42;;;;;;;;;;;4.40;99.90;;;;;;1941947;73;20116;-70
2022/11/11 08:16:10;;;;;;;;;;;4.40;99.90;;;;;;1930447;73;20112;-69
2022/11/11 08:18:37;;;;;;;;;;;4.50;99.90;;;;;;1929165;73;20120;-70
2022/11/11 08:21:03;;;;;;;;;;;4.70;99.90;;;;;;1933000;73;20146;-69
2022/11/11 08:23:33;;;;;;;;;;;4.90;99.90;;;;;;1939861;73;20115;-69
2022/11/11 08:28:47;;;;;;;;;;;5.00;99.90;;;;;;1947220;71;20111;-71
2022/11/11 08:31:14;;;;;;;;;;;5.00;99.90;;;;;;1942075;72;20241;-69
2022/11/11 08:33:41;;;;;;;;;;;5.10;99.90;;;;;;1942443;72;20319;-70
2022/11/11 08:36:10;;;;;;;;;;;5.20;99.90;;;;;;1948006;71;20104;-69
2022/11/11 08:38:36;;;;;;;;;;;5.10;99.90;;;;;;1955271;73;20195;-70
2022/11/11 08:41:03;;;;;;;;;;;5.20;99.90;;;;;;1941340;73;20222;-71
2022/11/11 08:43:35;;;;;;;;;;;5.20;99.90;;;;;;1955120;72;20156;-70
2022/11/11 08:45:59;;;;;;;;;;;5.30;99.90;;;;;;1950907;71;20332;-71
2022/11/11 08:48:26;;;;;;;;;;;5.40;99.90;;;;;;1935520;71;20320;-70
2022/11/11 08:50:53;;;;;;;;;;;5.50;99.90;;;;;;1946462;72;20163;-70
2022/11/11 08:53:20;;;;;;;;;;;5.50;99.90;;;;;;1947978;72;20181;-70
2022/11/11 08:55:46;;;;;;;;;;;5.40;99.90;;;;;;1941637;71;20173;-70
2022/11/11 08:58:13;;;;;;;;;;;5.30;99.90;;;;;;1953746;72;20201;-70
2022/11/11 09:00:40;;;;;;;;;;;5.60;99.90;;;;;;1954110;71;20115;-70
2022/11/11 09:03:07;;;;;;;;;;;5.70;99.90;;;;;;1961808;71;20161;-69
2022/11/11 09:05:34;;;;;;;;;;;5.70;99.90;;;;;;1932328;72;20119;-70
2022/11/11 09:08:01;;;;;;;;;;;5.90;99.90;;;;;;1942927;72;20204;-71
2022/11/11 09:10:28;;;;;;;;;;;6.00;99.90;;;;;;1944645;71;20117;-70
2022/11/11 09:12:57;;;;;;;;;;;6.20;99.90;;;;;;1956977;72;20341;-70
2022/11/11 09:15:25;;;;;;;;;;;6.50;99.90;;;;;;1957314;72;20150;-70
2022/11/11 09:17:52;;;;;;;;;;;6.80;99.90;;;;;;1948075;72;20119;-71
2022/11/11 09:20:18;;;;;;;;;;;6.90;99.90;;;;;;1946665;72;20181;-70
2022/11/11 09:22:45;;;;;;;;;;;7.20;99.90;;;;;;1929369;72;20116;-70
2022/11/11 09:25:13;;;;;;;;;;;7.40;99.90;;;;;;1939234;72;20148;-70
2022/11/11 09:27:40;;;;;;;;;;;7.50;99.90;;;;;;1941937;72;20119;-72
2022/11/11 09:30:07;;;;;;;;;;;7.30;99.90;;;;;;1951379;71;20181;-70
2022/11/11 09:32:34;;;;;;;;;;;7.50;99.90;;;;;;1944021;72;20154;-70
2022/11/11 09:35:01;;;;;;;;;;;7.60;99.90;;;;;;1947830;71;20122;-70
2022/11/11 09:37:28;;;;;;;;;;;7.70;99.90;;;;;;1951863;72;20115;-69
2022/11/11 09:39:58;;;;;;;;;;;7.90;99.90;;;;;;1950311;71;20626;-71
2022/11/11 09:42:43;;;;;;;;;;;7.90;99.90;;;;;;1957697;72;20109;-71
2022/11/11 09:45:20;;;;;;;;;;;8.20;99.90;;;;;;1895070;74;20138;-72
2022/11/11 09:47:54;;;;;;;;;;;8.30;99.90;;;;;;1973275;72;20110;-71
2022/11/11 09:50:24;;;;;;;;;;;8.40;99.90;;;;;;1961647;71;20119;-71
2022/11/11 09:52:53;;;;;;;;;;;8.20;99.90;;;;;;1965808;72;20322;-71
2022/11/11 09:55:21;;;;;;;;;;;8.40;99.90;;;;;;1967217;72;20114;-71
2022/11/11 09:57:57;;;;;;;;;;;8.60;99.90;;;;;;1969961;72;20152;-69
2022/11/11 10:00:25;;;;;;;;;;;8.80;99.90;;;;;;1970409;72;20128;-71
2022/11/11 10:02:56;;;;;;;;;;;8.80;99.90;;;;;;1970120;73;20142;-70
2022/11/11 10:05:44;;;;;;;;;;;9.00;99.90;;;;;;1959740;71;20186;-71
2022/11/11 10:08:15;;;;;;;;;;;9.00;99.90;;;;;;1953928;72;20103;-70
2022/11/11 10:10:46;;;;;;;;;;;9.20;99.90;;;;;;1957217;72;20139;-70
2022/11/11 10:13:16;;;;;;;;;;;9.50;99.90;;;;;;1963156;73;20284;-70
2022/11/11 10:15:51;;;;;;;;;;;9.50;99.90;;;;;;1950872;72;20116;-71
2022/11/11 10:18:19;;;;;;;;;;;9.60;99.90;;;;;;1971036;72;20292;-73
2022/11/11 10:20:47;;;;;;;;;;;9.60;99.90;;;;;;1960099;72;20265;-74
2022/11/11 10:23:15;;;;;;;;;;;9.50;99.90;;;;;;1977473;71;20153;-71
2022/11/11 10:25:43;;;;;;;;;;;9.50;99.90;;;;;;1968686;72;20185;-71
2022/11/11 10:28:11;;;;;;;;;;;9.70;99.90;;;;;;1970233;72;20104;-71
2022/11/11 10:30:38;;;;;;;;;;;9.60;99.90;;;;;;1957862;71;20153;-69
2022/11/11 10:33:06;;;;;;;;;;;9.70;99.90;;;;;;1965085;73;20134;-70
2022/11/11 10:35:33;;;;;;;;;;;9.80;99.90;;;;;;1943917;72;20387;-69
2022/11/11 10:38:11;;;;;;;;;;;10.30;99.90;;;;;;1927415;73;20109;-70
2022/11/11 10:40:52;;;;;;;;;;;10.60;99.90;;;;;;1933437;73;20153;-70
2022/11/11 10:43:23;;;;;;;;;;;10.80;99.90;;;;;;1943629;73;20137;-71
2022/11/11 10:46:00;;;;;;;;;;;10.60;99.90;;;;;;1956777;71;20363;-68
2022/11/11 10:48:31;;;;;;;;;;;11.10;99.90;;;;;;1939949;72;20154;-69
2022/11/11 10:50:59;;;;;;;;;;;11.60;99.90;;;;;;1952266;71;20123;-70
2022/11/11 10:53:33;;;;;;;;;;;11.40;99.90;;;;;;1946258;72;20179;-70
2022/11/11 10:56:08;;;;;;;;;;;11.40;99.90;;;;;;1947789;72;20340;-70
2022/11/11 10:58:38;;;;;;;;;;;11.20;99.90;;;;;;1943388;72;20124;-70
2022/11/11 11:01:05;;;;;;;;;;;11.40;99.90;;;;;;1950945;72;20141;-69
2022/11/11 11:03:49;;;;;;;;;;;11.50;99.90;;;;;;1950187;72;20151;-69
2022/11/11 11:06:17;;;;;;;;;;;11.90;99.90;;;;;;1967370;72;20363;-69
2022/11/11 11:08:44;;;;;;;;;;;11.70;99.90;;;;;;1977578;71;20122;-70
2022/11/11 11:11:28;;;;;;;;;;;12.00;99.90;;;;;;1961664;72;20157;-69
2022/11/11 11:13:56;;;;;;;;;;;11.70;99.90;;;;;;1966342;73;20322;-69
2022/11/11 11:16:29;;;;;;;;;;;11.90;99.90;;;;;;1954314;72;20227;-69
2022/11/11 11:19:19;;;;;;;;;;;11.50;99.90;;;;;;1962417;71;20106;-69
2022/11/11 11:21:44;;;;;;;;;;;11.90;99.90;;;;;;1965095;71;20120;-69
2022/11/11 11:24:24;;;;;;;;;;;12.30;99.90;;;;;;1930978;73;20242;-69
2022/11/11 11:26:52;;;;;;;;;;;12.40;99.90;;;;;;1935011;73;20201;-70
2022/11/11 11:29:23;;;;;;;;;;;12.30;99.90;;;;;;1941160;72;20104;-69
2022/11/11 11:31:50;;;;;;;;;;;12.40;99.90;;;;;;1953259;72;20189;-69
2022/11/11 11:34:18;;;;;;;;;;;12.30;99.90;;;;;;1952996;71;20280;-69
2022/11/11 11:36:46;;;;;;;;;;;12.40;99.90;;;;;;1930671;72;20115;-69
2022/11/11 11:39:13;;;;;;;;;;;12.20;99.90;;;;;;1950868;71;20171;-69
2022/11/11 11:41:41;;;;;;;;;;;12.40;99.90;;;;;;1942815;72;20127;-69
2022/11/11 11:44:27;;;;;;;;;;;12.80;99.90;;;;;;1943509;71;20200;-69
2022/11/11 11:46:55;;;;;;;;;;;13.30;99.90;;;;;;1938674;72;20127;-69
2022/11/11 11:49:23;;;;;;;;;;;12.90;99.90;;;;;;1959808;71;20180;-69
2022/11/11 11:52:06;;;;;;;;;;;12.70;99.90;;;;;;1963479;72;20309;-70
2022/11/11 11:54:53;;;;;;;;;;;12.80;99.90;;;;;;1944644;73;20159;-69
2022/11/11 11:57:21;;;;;;;;;;;12.70;99.90;;;;;;1948394;71;20178;-70
2022/11/11 11:59:52;;;;;;;;;;;13.00;99.90;;;;;;1949890;71;20321;-69
2022/11/11 12:02:21;;;;;;;;;;;13.30;99.90;;;;;;1962717;72;20161;-69
2022/11/11 12:05:06;;;;;;;;;;;13.60;99.90;;;;;;1943915;72;20142;-69
2022/11/11 12:07:49;;;;;;;;;;;13.70;99.90;;;;;;1959666;72;20116;-69
2022/11/11 12:10:20;;;;;;;;;;;13.80;99.90;;;;;;1951035;71;20339;-67
2022/11/11 12:12:51;;;;;;;;;;;14.20;99.90;;;;;;1947431;72;20203;-68
2022/11/11 12:15:22;;;;;;;;;;;14.50;99.90;;;;;;1947215;72;20351;-68
2022/11/11 12:18:09;;;;;;;;;;;14.90;99.90;;;;;;1955705;71;20152;-68
2022/11/11 12:20:49;;;;;;;;;;;15.10;99.90;;;;;;1952897;72;20124;-73
2022/11/11 12:23:18;;;;;;;;;;;15.10;99.90;;;;;;1941581;72;20123;-71
2022/11/11 12:25:49;;;;;;;;;;;15.10;99.90;;;;;;1952408;72;20483;-69
2022/11/11 12:28:26;;;;;;;;;;;14.70;99.90;;;;;;1946984;71;20149;-70
2022/11/11 12:30:57;;;;;;;;;;;14.60;99.90;;;;;;1951548;72;20173;-68
2022/11/11 12:33:42;;;;;;;;;;;14.40;99.90;;;;;;1948989;72;20418;-69
2022/11/11 12:36:20;;;;;;;;;;;14.40;99.90;;;;;;1951978;72;20426;-69
2022/11/11 12:39:00;;;;;;;;;;;14.60;99.90;;;;;;1950000;72;20127;-69
2022/11/11 12:41:34;;;;;;;;;;;14.60;99.90;;;;;;1936161;72;20146;-69
2022/11/11 12:44:02;;;;;;;;;;;14.60;99.90;;;;;;1947468;73;20494;-69
2022/11/11 12:46:33;;;;;;;;;;;14.30;99.90;;;;;;1957674;71;20124;-75
2022/11/11 12:49:17;;;;;;;;;;;14.60;99.90;;;;;;1943087;72;20140;-69
2022/11/11 12:51:45;;;;;;;;;;;14.70;99.90;;;;;;1932212;71;20357;-68
2022/11/11 12:54:25;;;;;;;;;;;14.80;99.90;;;;;;1958062;72;20154;-69
2022/11/11 12:56:53;;;;;;;;;;;15.30;99.90;;;;;;1955746;71;20119;-69
2022/11/11 12:59:27;;;;;;;;;;;15.60;99.90;;;;;;1928478;72;20152;-69
2022/11/11 13:01:58;;;;;;;;;;;15.30;99.90;;;;;;1930682;71;20229;-69
2022/11/11 13:04:30;;;;;;;;;;;15.20;99.90;;;;;;1937241;72;20124;-68
2022/11/11 13:07:04;;;;;;;;;;;15.10;99.90;;;;;;1941968;72;20173;-69
2022/11/11 13:09:44;;;;;;;;;;;14.90;99.90;;;;;;1946965;72;20169;-69
2022/11/11 13:12:24;;;;;;;;;;;14.80;99.90;;;;;;1952273;73;20186;-68
2022/11/11 13:14:53;;;;;;;;;;;14.80;99.90;;;;;;1945573;72;20165;-69
2022/11/11 13:17:20;;;;;;;;;;;15.00;99.90;;;;;;1973946;72;20114;-69
2022/11/11 13:20:02;;;;;;;;;;;15.10;99.90;;;;;;1941901;72;20141;-68
2022/11/11 13:22:29;;;;;;;;;;;15.10;99.90;;;;;;1942003;71;20102;-69
2022/11/11 13:24:57;;;;;;;;;;;15.50;99.90;;;;;;1942144;73;20346;-68
2022/11/11 13:27:37;;;;;;;;;;;16.10;99.90;;;;;;1974422;72;20117;-68
2022/11/11 13:30:09;;;;;;;;;;;16.80;99.90;;;;;;1898662;74;20424;-68
2022/11/11 13:32:37;;;;;;;;;;;15.90;99.90;;;;;;1949123;72;20330;-69
2022/11/11 13:35:04;;;;;;;;;;;16.20;99.90;;;;;;1955304;73;20159;-69
2022/11/11 13:37:32;;;;;;;;;;;16.00;99.90;;;;;;1971610;72;20148;-69
2022/11/11 13:40:00;;;;;;;;;;;16.00;99.90;;;;;;1956048;72;20146;-67
2022/11/11 13:42:27;;;;;;;;;;;15.90;99.90;;;;;;1964356;72;20187;-68
2022/11/11 13:44:55;;;;;;;;;;;15.80;99.90;;;;;;1952474;72;20179;-72
2022/11/11 13:47:26;;;;;;;;;;;16.10;99.90;;;;;;1942628;72;20119;-68
2022/11/11 13:49:54;;;;;;;;;;;15.90;99.90;;;;;;1950893;71;20357;-69
2022/11/11 13:52:25;;;;;;;;;;;16.10;99.90;;;;;;1941986;72;20380;-67
2022/11/11 13:54:53;;;;;;;;;;;16.50;99.90;;;;;;1960510;71;20100;-68
2022/11/11 13:57:21;;;;;;;;;;;16.20;99.90;;;;;;1944761;72;20169;-68
2022/11/11 13:59:52;;;;;;;;;;;16.50;99.90;;;;;;1957862;72;20112;-68
2022/11/11 14:02:20;;;;;;;;;;;16.60;99.90;;;;;;1953266;71;20150;-68
2022/11/11 14:05:04;;;;;;;;;;;16.70;99.90;;;;;;1941889;71;20119;-68
2022/11/11 14:07:48;;;;;;;;;;;16.40;99.90;;;;;;1932049;72;20110;-68
2022/11/11 14:10:19;;;;;;;;;;;16.30;99.90;;;;;;1940709;72;20225;-69
2022/11/11 14:12:46;;;;;;;;;;;16.70;99.90;;;;;;1943307;73;20156;-68
2022/11/11 14:15:31;;;;;;;;;;;16.70;99.90;;;;;;1941498;72;20114;-68
2022/11/11 14:17:57;;;;;;;;;;;16.50;99.90;;;;;;1933508;73;20312;-69
2022/11/11 14:20:40;;;;;;;;;;;16.80;99.90;;;;;;1952603;72;20146;-69
2022/11/11 14:23:25;;;;;;;;;;;17.20;99.90;;;;;;1941056;72;20329;-68
2022/11/11 14:26:09;;;;;;;;;;;17.10;99.90;;;;;;1946012;71;20119;-69
2022/11/11 14:28:38;;;;;;;;;;;17.30;99.90;;;;;;1945219;73;20355;-70
2022/11/11 14:31:16;;;;;;;;;;;17.30;99.90;;;;;;1946899;73;20194;-70
2022/11/11 14:33:53;;;;;;;;;;;17.40;99.90;;;;;;1934980;71;20344;-72
2022/11/11 14:36:38;;;;;;;;;;;17.60;99.90;;;;;;1950166;71;20108;-71
2022/11/11 14:39:07;;;;;;;;;;;17.50;99.90;;;;;;1952664;73;20137;-71
2022/11/11 14:41:42;;;;;;;;;;;17.30;99.90;;;;;;1953027;71;20327;-70
2022/11/11 14:44:19;;;;;;;;;;;16.90;99.90;;;;;;1957480;71;20153;-71
2022/11/11 14:47:04;;;;;;;;;;;16.40;99.90;;;;;;1928387;72;20315;-71
2022/11/11 14:49:32;;;;;;;;;;;15.90;99.90;;;;;;1938397;72;20137;-69
2022/11/11 14:52:00;;;;;;;;;;;15.60;99.90;;;;;;1946041;72;20104;-70
2022/11/11 14:54:35;;;;;;;;;;;15.50;99.90;;;;;;1959904;73;20119;-71
2022/11/11 14:57:03;;;;;;;;;;;15.30;99.90;;;;;;1963984;72;20102;-70
2022/11/11 14:59:30;;;;;;;;;;;15.30;99.90;;;;;;1971184;72;20143;-69
2022/11/11 15:01:56;;;;;;;;;;;15.40;99.90;;;;;;1947071;72;20349;-70
2022/11/11 15:04:23;;;;;;;;;;;15.50;99.90;;;;;;1924223;74;20176;-71
2022/11/11 15:06:51;;;;;;;;;;;15.60;99.90;;;;;;1906393;73;20151;-70
2022/11/11 15:09:20;;;;;;;;;;;15.60;99.90;;;;;;1908206;73;20337;-71
2022/11/11 15:11:48;;;;;;;;;;;15.40;99.90;;;;;;1905153;73;20125;-72
2022/11/11 15:14:34;;;;;;;;;;;15.10;99.90;;;;;;1899153;73;20347;-70
2022/11/11 15:17:03;;;;;;;;;;;14.80;99.90;;;;;;1919198;73;20125;-71
2022/11/11 15:19:43;;;;;;;;;;;14.40;99.90;;;;;;1912351;73;20149;-70
2022/11/11 15:22:12;;;;;;;;;;;14.00;99.90;;;;;;1913582;72;20121;-72
2022/11/11 15:24:40;;;;;;;;;;;13.60;99.90;;;;;;1925954;72;20334;-69
2022/11/11 15:27:09;;;;;;;;;;;13.30;99.90;;;;;;1916345;74;20118;-70
2022/11/11 15:29:54;;;;;;;;;;;13.00;99.90;;;;;;1910520;73;20197;-71
2022/11/11 15:32:22;;;;;;;;;;;12.80;99.90;;;;;;1909384;73;20177;-70
2022/11/11 15:34:51;;;;;;;;;;;12.60;99.90;;;;;;1929836;74;20319;-71
2022/11/11 15:37:18;;;;;;;;;;;12.50;99.90;;;;;;1923582;73;20116;-71
2022/11/11 15:39:46;;;;;;;;;;;12.30;99.90;;;;;;1931231;73;20277;-69
2022/11/11 15:42:20;;;;;;;;;;;12.10;99.90;;;;;;1925832;74;20115;-70
2022/11/11 15:44:47;;;;;;;;;;;12.00;99.90;;;;;;1918587;74;20157;-71
2022/11/11 15:47:14;;;;;;;;;;;11.90;99.90;;;;;;1914040;74;20130;-70
2022/11/11 15:49:49;;;;;;;;;;;11.70;99.90;;;;;;1902942;73;20330;-70
2022/11/11 15:52:24;;;;;;;;;;;11.60;99.90;;;;;;1920456;74;20341;-69
2022/11/11 15:54:51;;;;;;;;;;;11.50;99.90;;;;;;1913849;74;20145;-70
2022/11/11 15:57:33;;;;;;;;;;;11.40;99.90;;;;;;1917493;73;20122;-71
2022/11/11 16:00:01;;;;;;;;;;;11.30;99.90;;;;;;1934214;73;20168;-70